sensor_id;sensor_type;location;lat;lon;timestamp;P1;durP1;ratioP1;P2;durP2;ratioP2
2001;SDS011;1003;48.002;7.788;2022-07-05T00:00:00;4.00;;;3.23;;
2001;SDS011;1003;48.002;7.788;2022-07-05T00:02:30;3.80;;;3.50;;
2001;SDS011;1003;48.002;7.788;2022-07-05T00:04:58;3.73;;;3.43;;
2001;SDS011;1003;48.002;7.788;2022-07-05T00:07:25;3.43;;;3.10;;
2001;SDS011;1003;48.002;7.788;2022-07-05T00:09:53;3.03;;;2.80;;
2001;SDS011;1003;48.002;7.788;2022-07-05T00:12:24;3.30;;;2.80;;
2001;SDS011;1003;48.002;7.788;2022-07-05T00:14:55;3.37;;;3.07;;
2001;SDS011;1003;48.002;7.788;2022-07-05T00:17:24;4.20;;;3.00;;
2001;SDS011;1003;48.002;7.788;2022-07-05T00:19:51;3.37;;;3.07;;
2001;SDS011;1003;48.002;7.788;2022-07-05T00:22:18;4.33;;;3.03;;
2001;SDS011;1003;48.002;7.788;2022-07-05T00:24:45;3.40;;;3.10;;
2001;SDS011;1003;48.002;7.788;2022-07-05T00:27:12;3.80;;;3.23;;
2001;SDS011;1003;48.002;7.788;2022-07-05T00:29:39;6.43;;;3.40;;
2001;SDS011;1003;48.002;7.788;2022-07-05T00:32:06;3.80;;;3.30;;
2001;SDS011;1003;48.002;7.788;2022-07-05T00:34:35;3.53;;;3.10;;
2001;SDS011;1003;48.002;7.788;2022-07-05T00:37:02;3.53;;;2.83;;
2001;SDS011;1003;48.002;7.788;2022-07-05T00:39:30;3.73;;;2.83;;
2001;SDS011;1003;48.002;7.788;2022-07-05T00:41:57;2.77;;;2.53;;
2001;SDS011;1003;48.002;7.788;2022-07-05T00:44:29;2.80;;;2.60;;
2001;SDS011;1003;48.002;7.788;2022-07-05T00:47:00;2.70;;;2.47;;
2001;SDS011;1003;48.002;7.788;2022-07-05T00:49:28;3.10;;;2.80;;
2001;SDS011;1003;48.002;7.788;2022-07-05T00:51:57;2.80;;;2.50;;
2001;SDS011;1003;48.002;7.788;2022-07-05T00:54:25;3.47;;;2.80;;
2001;SDS011;1003;48.002;7.788;2022-07-05T00:56:53;3.10;;;2.80;;
2001;SDS011;1003;48.002;7.788;2022-07-05T00:59:21;3.97;;;2.80;;
2001;SDS011;1003;48.002;7.788;2022-07-05T01:01:48;3.20;;;2.50;;
2001;SDS011;1003;48.002;7.788;2022-07-05T01:04:15;3.20;;;2.90;;
2001;SDS011;1003;48.002;7.788;2022-07-05T01:06:44;3.13;;;2.90;;
2001;SDS011;1003;48.002;7.788;2022-07-05T01:09:16;3.27;;;2.67;;
2001;SDS011;1003;48.002;7.788;2022-07-05T01:11:46;3.00;;;2.70;;
2001;SDS011;1003;48.002;7.788;2022-07-05T01:14:15;3.23;;;2.70;;
2001;SDS011;1003;48.002;7.788;2022-07-05T01:16:45;3.00;;;2.50;;
2001;SDS011;1003;48.002;7.788;2022-07-05T01:19:13;2.70;;;2.50;;
2001;SDS011;1003;48.002;7.788;2022-07-05T01:21:41;5.50;;;2.70;;
2001;SDS011;1003;48.002;7.788;2022-07-05T01:24:12;4.27;;;3.07;;
2001;SDS011;1003;48.002;7.788;2022-07-05T01:26:44;3.00;;;2.80;;
2001;SDS011;1003;48.002;7.788;2022-07-05T01:29:13;3.33;;;2.83;;
2001;SDS011;1003;48.002;7.788;2022-07-05T01:31:41;3.23;;;2.90;;
2001;SDS011;1003;48.002;7.788;2022-07-05T01:34:09;3.33;;;2.73;;
2001;SDS011;1003;48.002;7.788;2022-07-05T01:36:37;3.03;;;2.57;;
2001;SDS011;1003;48.002;7.788;2022-07-05T01:39:05;3.77;;;2.70;;
2001;SDS011;1003;48.002;7.788;2022-07-05T01:41:35;4.17;;;2.87;;
2001;SDS011;1003;48.002;7.788;2022-07-05T01:44:02;3.00;;;2.67;;
2001;SDS011;1003;48.002;7.788;2022-07-05T01:46:31;4.17;;;2.73;;
2001;SDS011;1003;48.002;7.788;2022-07-05T01:49:03;4.40;;;2.73;;
2001;SDS011;1003;48.002;7.788;2022-07-05T01:51:35;4.47;;;3.20;;
2001;SDS011;1003;48.002;7.788;2022-07-05T01:54:11;2.80;;;2.60;;
2001;SDS011;1003;48.002;7.788;2022-07-05T01:56:39;3.13;;;2.80;;
2001;SDS011;1003;48.002;7.788;2022-07-05T01:59:06;4.10;;;2.90;;
2001;SDS011;1003;48.002;7.788;2022-07-05T02:01:34;3.63;;;2.83;;
2001;SDS011;1003;48.002;7.788;2022-07-05T02:06:33;6.83;;;2.70;;
2001;SDS011;1003;48.002;7.788;2022-07-05T02:09:02;5.97;;;3.27;;
2001;SDS011;1003;48.002;7.788;2022-07-05T02:11:31;3.57;;;2.80;;
2001;SDS011;1003;48.002;7.788;2022-07-05T02:14:00;4.13;;;3.00;;
2001;SDS011;1003;48.002;7.788;2022-07-05T02:16:27;4.73;;;3.10;;
2001;SDS011;1003;48.002;7.788;2022-07-05T02:18:55;3.53;;;3.23;;
2001;SDS011;1003;48.002;7.788;2022-07-05T02:21:22;3.93;;;2.90;;
2001;SDS011;1003;48.002;7.788;2022-07-05T02:23:50;3.10;;;2.80;;
2001;SDS011;1003;48.002;7.788;2022-07-05T02:26:17;3.30;;;2.83;;
2001;SDS011;1003;48.002;7.788;2022-07-05T02:28:44;3.53;;;3.23;;
2001;SDS011;1003;48.002;7.788;2022-07-05T02:31:13;5.23;;;3.40;;
2001;SDS011;1003;48.002;7.788;2022-07-05T02:33:41;4.33;;;3.87;;
2001;SDS011;1003;48.002;7.788;2022-07-05T02:36:09;4.80;;;3.40;;
2001;SDS011;1003;48.002;7.788;2022-07-05T02:38:38;4.43;;;3.47;;
2001;SDS011;1003;48.002;7.788;2022-07-05T02:41:07;4.87;;;3.40;;
2001;SDS011;1003;48.002;7.788;2022-07-05T02:43:36;5.27;;;3.83;;
2001;SDS011;1003;48.002;7.788;2022-07-05T02:46:04;6.33;;;3.77;;
2001;SDS011;1003;48.002;7.788;2022-07-05T02:48:35;7.20;;;3.80;;
2001;SDS011;1003;48.002;7.788;2022-07-05T02:51:04;5.30;;;3.70;;
2001;SDS011;1003;48.002;7.788;2022-07-05T02:53:32;4.10;;;3.40;;
2001;SDS011;1003;48.002;7.788;2022-07-05T02:56:00;4.10;;;3.57;;
2001;SDS011;1003;48.002;7.788;2022-07-05T02:58:27;4.10;;;3.70;;
2001;SDS011;1003;48.002;7.788;2022-07-05T03:00:54;4.90;;;3.67;;
2001;SDS011;1003;48.002;7.788;2022-07-05T03:03:21;4.27;;;3.70;;
2001;SDS011;1003;48.002;7.788;2022-07-05T03:05:50;4.83;;;4.07;;
2001;SDS011;1003;48.002;7.788;2022-07-05T03:08:17;4.80;;;3.90;;
2001;SDS011;1003;48.002;7.788;2022-07-05T03:10:44;5.00;;;3.80;;
2001;SDS011;1003;48.002;7.788;2022-07-05T03:13:12;4.77;;;3.87;;
2001;SDS011;1003;48.002;7.788;2022-07-05T03:15:39;3.97;;;3.57;;
2001;SDS011;1003;48.002;7.788;2022-07-05T03:18:07;3.93;;;3.50;;
2001;SDS011;1003;48.002;7.788;2022-07-05T03:20:35;4.03;;;3.50;;
2001;SDS011;1003;48.002;7.788;2022-07-05T03:23:04;4.33;;;3.70;;
2001;SDS011;1003;48.002;7.788;2022-07-05T03:25:31;4.40;;;3.70;;
2001;SDS011;1003;48.002;7.788;2022-07-05T03:27:58;3.77;;;3.47;;
2001;SDS011;1003;48.002;7.788;2022-07-05T03:30:25;4.50;;;3.50;;
2001;SDS011;1003;48.002;7.788;2022-07-05T03:32:52;3.93;;;3.53;;
2001;SDS011;1003;48.002;7.788;2022-07-05T03:35:19;3.87;;;3.57;;
2001;SDS011;1003;48.002;7.788;2022-07-05T03:37:46;3.60;;;3.30;;
2001;SDS011;1003;48.002;7.788;2022-07-05T03:40:15;3.87;;;3.57;;
2001;SDS011;1003;48.002;7.788;2022-07-05T03:42:42;4.30;;;3.90;;
2001;SDS011;1003;48.002;7.788;2022-07-05T03:45:09;4.67;;;3.67;;
2001;SDS011;1003;48.002;7.788;2022-07-05T03:47:37;3.60;;;3.30;;
2001;SDS011;1003;48.002;7.788;2022-07-05T03:50:04;4.33;;;3.53;;
2001;SDS011;1003;48.002;7.788;2022-07-05T03:52:32;3.57;;;3.27;;
2001;SDS011;1003;48.002;7.788;2022-07-05T03:55:00;3.33;;;3.07;;
2001;SDS011;1003;48.002;7.788;2022-07-05T03:57:28;4.20;;;3.80;;
2001;SDS011;1003;48.002;7.788;2022-07-05T03:59:55;3.53;;;3.17;;
2001;SDS011;1003;48.002;7.788;2022-07-05T04:02:22;4.57;;;3.30;;
2001;SDS011;1003;48.002;7.788;2022-07-05T04:04:50;3.90;;;3.10;;
2001;SDS011;1003;48.002;7.788;2022-07-05T04:07:17;3.57;;;3.23;;
2001;SDS011;1003;48.002;7.788;2022-07-05T04:09:44;3.53;;;3.13;;
2001;SDS011;1003;48.002;7.788;2022-07-05T04:12:11;4.80;;;3.80;;
2001;SDS011;1003;48.002;7.788;2022-07-05T04:14:40;5.87;;;3.40;;
2001;SDS011;1003;48.002;7.788;2022-07-05T04:17:07;3.30;;;3.00;;
2001;SDS011;1003;48.002;7.788;2022-07-05T04:19:34;3.40;;;3.10;;
2001;SDS011;1003;48.002;7.788;2022-07-05T04:22:01;3.40;;;3.10;;
2001;SDS011;1003;48.002;7.788;2022-07-05T04:24:29;3.37;;;3.07;;
2001;SDS011;1003;48.002;7.788;2022-07-05T04:26:56;3.50;;;3.20;;
2001;SDS011;1003;48.002;7.788;2022-07-05T04:29:23;3.67;;;3.30;;
2001;SDS011;1003;48.002;7.788;2022-07-05T04:31:51;3.17;;;2.97;;
2001;SDS011;1003;48.002;7.788;2022-07-05T04:34:18;4.10;;;2.97;;
2001;SDS011;1003;48.002;7.788;2022-07-05T04:36:45;2.80;;;2.60;;
2001;SDS011;1003;48.002;7.788;2022-07-05T04:39:12;3.63;;;2.93;;
2001;SDS011;1003;48.002;7.788;2022-07-05T04:41:40;3.30;;;3.00;;
2001;SDS011;1003;48.002;7.788;2022-07-05T04:44:07;3.20;;;2.60;;
2001;SDS011;1003;48.002;7.788;2022-07-05T04:46:34;3.27;;;2.50;;
2001;SDS011;1003;48.002;7.788;2022-07-05T04:49:02;3.83;;;2.47;;
2001;SDS011;1003;48.002;7.788;2022-07-05T04:51:29;2.93;;;2.10;;
2001;SDS011;1003;48.002;7.788;2022-07-05T04:53:56;2.00;;;1.90;;
2001;SDS011;1003;48.002;7.788;2022-07-05T04:56:23;2.83;;;2.40;;
2001;SDS011;1003;48.002;7.788;2022-07-05T04:58:50;2.23;;;2.03;;
2001;SDS011;1003;48.002;7.788;2022-07-05T05:01:17;2.10;;;1.90;;
2001;SDS011;1003;48.002;7.788;2022-07-05T05:03:45;2.00;;;1.90;;
2001;SDS011;1003;48.002;7.788;2022-07-05T05:06:13;2.03;;;1.92;;
2001;SDS011;1003;48.002;7.788;2022-07-05T05:08:40;1.90;;;1.80;;
2001;SDS011;1003;48.002;7.788;2022-07-05T05:11:08;1.90;;;1.80;;
2001;SDS011;1003;48.002;7.788;2022-07-05T05:13:35;1.80;;;1.70;;
2001;SDS011;1003;48.002;7.788;2022-07-05T05:16:02;2.17;;;1.73;;
2001;SDS011;1003;48.002;7.788;2022-07-05T05:18:30;2.53;;;2.00;;
2001;SDS011;1003;48.002;7.788;2022-07-05T05:20:57;1.90;;;1.70;;
2001;SDS011;1003;48.002;7.788;2022-07-05T05:23:25;1.88;;;1.52;;
2001;SDS011;1003;48.002;7.788;2022-07-05T05:25:53;1.92;;;1.40;;
2001;SDS011;1003;48.002;7.788;2022-07-05T05:28:20;1.70;;;1.60;;
2001;SDS011;1003;48.002;7.788;2022-07-05T05:30:47;2.25;;;1.70;;
2001;SDS011;1003;48.002;7.788;2022-07-05T05:33:14;3.22;;;1.60;;
2001;SDS011;1003;48.002;7.788;2022-07-05T05:35:41;2.00;;;1.67;;
2001;SDS011;1003;48.002;7.788;2022-07-05T05:38:08;1.73;;;1.50;;
2001;SDS011;1003;48.002;7.788;2022-07-05T05:40:37;2.45;;;1.40;;
2001;SDS011;1003;48.002;7.788;2022-07-05T05:43:06;1.70;;;1.60;;
2001;SDS011;1003;48.002;7.788;2022-07-05T05:45:33;2.10;;;1.63;;
2001;SDS011;1003;48.002;7.788;2022-07-05T05:48:00;1.42;;;1.33;;
2001;SDS011;1003;48.002;7.788;2022-07-05T05:50:28;1.77;;;1.30;;
2001;SDS011;1003;48.002;7.788;2022-07-05T05:52:57;1.77;;;1.50;;
2001;SDS011;1003;48.002;7.788;2022-07-05T05:55:25;1.52;;;1.42;;
2001;SDS011;1003;48.002;7.788;2022-07-05T05:57:55;2.58;;;1.60;;
2001;SDS011;1003;48.002;7.788;2022-07-05T06:00:23;2.13;;;1.50;;
2001;SDS011;1003;48.002;7.788;2022-07-05T06:02:51;1.60;;;1.50;;
2001;SDS011;1003;48.002;7.788;2022-07-05T06:05:19;1.95;;;1.50;;
2001;SDS011;1003;48.002;7.788;2022-07-05T06:07:47;1.88;;;1.40;;
2001;SDS011;1003;48.002;7.788;2022-07-05T06:10:17;2.45;;;1.73;;
2001;SDS011;1003;48.002;7.788;2022-07-05T06:12:47;3.05;;;1.67;;
2001;SDS011;1003;48.002;7.788;2022-07-05T06:15:16;2.22;;;1.60;;
2001;SDS011;1003;48.002;7.788;2022-07-05T06:17:44;1.30;;;1.30;;
2001;SDS011;1003;48.002;7.788;2022-07-05T06:20:12;3.17;;;1.73;;
2001;SDS011;1003;48.002;7.788;2022-07-05T06:22:41;4.00;;;1.65;;
2001;SDS011;1003;48.002;7.788;2022-07-05T06:25:08;2.28;;;1.40;;
2001;SDS011;1003;48.002;7.788;2022-07-05T06:27:39;2.20;;;1.50;;
2001;SDS011;1003;48.002;7.788;2022-07-05T06:30:07;3.28;;;1.33;;
2001;SDS011;1003;48.002;7.788;2022-07-05T06:32:37;2.55;;;1.55;;
2001;SDS011;1003;48.002;7.788;2022-07-05T06:35:05;2.67;;;1.63;;
2001;SDS011;1003;48.002;7.788;2022-07-05T06:37:41;2.08;;;1.30;;
2001;SDS011;1003;48.002;7.788;2022-07-05T06:40:10;2.03;;;1.20;;
2001;SDS011;1003;48.002;7.788;2022-07-05T06:42:40;1.00;;;1.00;;
2001;SDS011;1003;48.002;7.788;2022-07-05T06:45:07;1.80;;;1.25;;
2001;SDS011;1003;48.002;7.788;2022-07-05T06:47:37;1.35;;;1.25;;
2001;SDS011;1003;48.002;7.788;2022-07-05T06:50:05;1.70;;;1.15;;
2001;SDS011;1003;48.002;7.788;2022-07-05T06:52:33;2.05;;;1.10;;
2001;SDS011;1003;48.002;7.788;2022-07-05T06:55:03;1.17;;;1.17;;
2001;SDS011;1003;48.002;7.788;2022-07-05T06:57:31;1.50;;;1.20;;
2001;SDS011;1003;48.002;7.788;2022-07-05T06:59:58;1.70;;;1.30;;
2001;SDS011;1003;48.002;7.788;2022-07-05T07:02:26;2.05;;;1.35;;
2001;SDS011;1003;48.002;7.788;2022-07-05T07:04:54;2.90;;;1.40;;
2001;SDS011;1003;48.002;7.788;2022-07-05T07:07:24;1.48;;;1.20;;
2001;SDS011;1003;48.002;7.788;2022-07-05T07:10:08;1.73;;;1.35;;
2001;SDS011;1003;48.002;7.788;2022-07-05T07:12:35;1.23;;;1.13;;
2001;SDS011;1003;48.002;7.788;2022-07-05T07:15:03;1.42;;;1.20;;
2001;SDS011;1003;48.002;7.788;2022-07-05T07:17:31;2.35;;;1.30;;
2001;SDS011;1003;48.002;7.788;2022-07-05T07:20:00;1.55;;;1.45;;
2001;SDS011;1003;48.002;7.788;2022-07-05T07:22:27;1.17;;;1.10;;
2001;SDS011;1003;48.002;7.788;2022-07-05T07:24:54;2.60;;;1.38;;
2001;SDS011;1003;48.002;7.788;2022-07-05T07:27:21;1.95;;;1.33;;
2001;SDS011;1003;48.002;7.788;2022-07-05T07:29:48;2.00;;;1.40;;
2001;SDS011;1003;48.002;7.788;2022-07-05T07:32:15;2.38;;;1.10;;
2001;SDS011;1003;48.002;7.788;2022-07-05T07:34:44;1.73;;;1.52;;
2001;SDS011;1003;48.002;7.788;2022-07-05T07:37:13;1.40;;;1.30;;
2001;SDS011;1003;48.002;7.788;2022-07-05T07:39:40;1.30;;;1.20;;
2001;SDS011;1003;48.002;7.788;2022-07-05T07:42:08;1.40;;;1.30;;
2001;SDS011;1003;48.002;7.788;2022-07-05T07:44:35;1.15;;;1.10;;
2001;SDS011;1003;48.002;7.788;2022-07-05T07:47:02;2.42;;;1.38;;
2001;SDS011;1003;48.002;7.788;2022-07-05T07:49:30;3.30;;;1.58;;
2001;SDS011;1003;48.002;7.788;2022-07-05T07:51:57;1.58;;;1.23;;
2001;SDS011;1003;48.002;7.788;2022-07-05T07:54:25;1.30;;;1.20;;
2001;SDS011;1003;48.002;7.788;2022-07-05T07:56:52;2.08;;;1.50;;
2001;SDS011;1003;48.002;7.788;2022-07-05T07:59:20;1.90;;;1.33;;
2001;SDS011;1003;48.002;7.788;2022-07-05T08:01:47;1.83;;;1.50;;
2001;SDS011;1003;48.002;7.788;2022-07-05T08:04:15;3.60;;;1.40;;
2001;SDS011;1003;48.002;7.788;2022-07-05T08:06:43;2.20;;;1.50;;
2001;SDS011;1003;48.002;7.788;2022-07-05T08:09:11;3.00;;;1.35;;
2001;SDS011;1003;48.002;7.788;2022-07-05T08:11:40;1.80;;;1.70;;
2001;SDS011;1003;48.002;7.788;2022-07-05T08:14:08;1.50;;;1.40;;
2001;SDS011;1003;48.002;7.788;2022-07-05T08:16:36;2.63;;;1.50;;
2001;SDS011;1003;48.002;7.788;2022-07-05T08:19:04;1.85;;;1.50;;
2001;SDS011;1003;48.002;7.788;2022-07-05T08:21:49;1.80;;;1.30;;
2001;SDS011;1003;48.002;7.788;2022-07-05T08:24:17;1.88;;;1.35;;
2001;SDS011;1003;48.002;7.788;2022-07-05T08:26:47;2.15;;;1.48;;
2001;SDS011;1003;48.002;7.788;2022-07-05T08:29:14;2.33;;;1.42;;
2001;SDS011;1003;48.002;7.788;2022-07-05T08:31:42;4.13;;;1.65;;
2001;SDS011;1003;48.002;7.788;2022-07-05T08:34:12;2.88;;;1.55;;
2001;SDS011;1003;48.002;7.788;2022-07-05T08:36:39;2.57;;;1.50;;
2001;SDS011;1003;48.002;7.788;2022-07-05T08:39:07;2.77;;;1.50;;
2001;SDS011;1003;48.002;7.788;2022-07-05T08:41:35;2.43;;;1.50;;
2001;SDS011;1003;48.002;7.788;2022-07-05T08:44:06;2.27;;;1.53;;
2001;SDS011;1003;48.002;7.788;2022-07-05T08:46:37;1.50;;;1.40;;
2001;SDS011;1003;48.002;7.788;2022-07-05T08:49:06;2.13;;;1.60;;
2001;SDS011;1003;48.002;7.788;2022-07-05T08:51:37;1.50;;;1.40;;
2001;SDS011;1003;48.002;7.788;2022-07-05T08:54:07;2.37;;;1.50;;
2001;SDS011;1003;48.002;7.788;2022-07-05T08:56:38;1.40;;;1.30;;
2001;SDS011;1003;48.002;7.788;2022-07-05T08:59:10;4.87;;;1.80;;
2001;SDS011;1003;48.002;7.788;2022-07-05T09:01:41;1.60;;;1.50;;
2001;SDS011;1003;48.002;7.788;2022-07-05T09:04:11;1.90;;;1.60;;
2001;SDS011;1003;48.002;7.788;2022-07-05T09:06:42;3.70;;;2.07;;
2001;SDS011;1003;48.002;7.788;2022-07-05T09:09:15;3.93;;;1.60;;
2001;SDS011;1003;48.002;7.788;2022-07-05T09:11:45;1.63;;;1.50;;
2001;SDS011;1003;48.002;7.788;2022-07-05T09:14:21;1.70;;;1.60;;
2001;SDS011;1003;48.002;7.788;2022-07-05T09:16:50;2.10;;;1.80;;
2001;SDS011;1003;48.002;7.788;2022-07-05T09:19:19;5.23;;;1.90;;
2001;SDS011;1003;48.002;7.788;2022-07-05T09:21:47;2.90;;;1.80;;
2001;SDS011;1003;48.002;7.788;2022-07-05T09:24:26;4.27;;;1.80;;
2001;SDS011;1003;48.002;7.788;2022-07-05T09:26:54;2.43;;;1.50;;
2001;SDS011;1003;48.002;7.788;2022-07-05T09:29:31;1.70;;;1.60;;
2001;SDS011;1003;48.002;7.788;2022-07-05T09:32:01;2.03;;;1.83;;
2001;SDS011;1003;48.002;7.788;2022-07-05T09:34:30;1.90;;;1.47;;
2001;SDS011;1003;48.002;7.788;2022-07-05T09:37:01;1.87;;;1.70;;
2001;SDS011;1003;48.002;7.788;2022-07-05T09:39:34;4.83;;;1.80;;
2001;SDS011;1003;48.002;7.788;2022-07-05T09:42:11;3.57;;;1.80;;
2001;SDS011;1003;48.002;7.788;2022-07-05T09:44:43;2.37;;;1.57;;
2001;SDS011;1003;48.002;7.788;2022-07-05T09:47:14;2.17;;;1.60;;
2001;SDS011;1003;48.002;7.788;2022-07-05T09:49:43;1.67;;;1.50;;
2001;SDS011;1003;48.002;7.788;2022-07-05T09:52:25;2.20;;;1.77;;
2001;SDS011;1003;48.002;7.788;2022-07-05T09:55:00;2.47;;;1.50;;
2001;SDS011;1003;48.002;7.788;2022-07-05T09:57:29;1.60;;;1.50;;
2001;SDS011;1003;48.002;7.788;2022-07-05T10:00:02;1.63;;;1.53;;
2001;SDS011;1003;48.002;7.788;2022-07-05T10:02:35;3.33;;;1.70;;
2001;SDS011;1003;48.002;7.788;2022-07-05T10:05:10;3.57;;;1.60;;
2001;SDS011;1003;48.002;7.788;2022-07-05T10:07:40;2.57;;;1.47;;
2001;SDS011;1003;48.002;7.788;2022-07-05T10:10:09;2.43;;;1.77;;
2001;SDS011;1003;48.002;7.788;2022-07-05T10:12:38;1.93;;;1.50;;
2001;SDS011;1003;48.002;7.788;2022-07-05T10:15:10;2.10;;;1.67;;
2001;SDS011;1003;48.002;7.788;2022-07-05T10:17:40;1.77;;;1.60;;
2001;SDS011;1003;48.002;7.788;2022-07-05T10:20:13;3.80;;;1.50;;
2001;SDS011;1003;48.002;7.788;2022-07-05T10:22:46;2.40;;;1.60;;
2001;SDS011;1003;48.002;7.788;2022-07-05T10:25:14;2.07;;;1.60;;
2001;SDS011;1003;48.002;7.788;2022-07-05T10:27:42;1.70;;;1.60;;
2001;SDS011;1003;48.002;7.788;2022-07-05T10:30:11;2.17;;;1.80;;
2001;SDS011;1003;48.002;7.788;2022-07-05T10:32:41;2.30;;;1.53;;
2001;SDS011;1003;48.002;7.788;2022-07-05T10:35:09;1.70;;;1.37;;
2001;SDS011;1003;48.002;7.788;2022-07-05T10:37:38;1.63;;;1.50;;
2001;SDS011;1003;48.002;7.788;2022-07-05T10:40:06;3.30;;;1.70;;
2001;SDS011;1003;48.002;7.788;2022-07-05T10:42:37;1.47;;;1.40;;
2001;SDS011;1003;48.002;7.788;2022-07-05T10:45:27;2.43;;;1.77;;
2001;SDS011;1003;48.002;7.788;2022-07-05T10:50:50;2.00;;;1.63;;
2001;SDS011;1003;48.002;7.788;2022-07-05T10:53:19;1.70;;;1.60;;
2001;SDS011;1003;48.002;7.788;2022-07-05T10:55:52;2.70;;;1.70;;
2001;SDS011;1003;48.002;7.788;2022-07-05T10:58:28;1.87;;;1.50;;
2001;SDS011;1003;48.002;7.788;2022-07-05T11:07:00;2.47;;;1.53;;
2001;SDS011;1003;48.002;7.788;2022-07-05T11:09:29;1.83;;;1.47;;
2001;SDS011;1003;48.002;7.788;2022-07-05T11:12:06;1.70;;;1.60;;
2001;SDS011;1003;48.002;7.788;2022-07-05T11:17:31;2.97;;;1.50;;
2001;SDS011;1003;48.002;7.788;2022-07-05T11:20:11;1.53;;;1.43;;
2001;SDS011;1003;48.002;7.788;2022-07-05T11:25:35;2.03;;;1.60;;
2001;SDS011;1003;48.002;7.788;2022-07-05T11:28:16;1.40;;;1.30;;
2001;SDS011;1003;48.002;7.788;2022-07-05T11:30:49;1.40;;;1.30;;
2001;SDS011;1003;48.002;7.788;2022-07-05T11:33:31;2.57;;;1.43;;
2001;SDS011;1003;48.002;7.788;2022-07-05T11:36:00;2.03;;;1.60;;
2001;SDS011;1003;48.002;7.788;2022-07-05T11:38:29;1.63;;;1.30;;
2001;SDS011;1003;48.002;7.788;2022-07-05T11:41:10;1.30;;;1.20;;
2001;SDS011;1003;48.002;7.788;2022-07-05T11:43:38;2.63;;;1.20;;
2001;SDS011;1003;48.002;7.788;2022-07-05T11:46:08;2.23;;;1.50;;
2001;SDS011;1003;48.002;7.788;2022-07-05T11:48:37;1.90;;;1.43;;
2001;SDS011;1003;48.002;7.788;2022-07-05T11:51:13;1.50;;;1.27;;
2001;SDS011;1003;48.002;7.788;2022-07-05T11:53:41;1.70;;;1.47;;
2001;SDS011;1003;48.002;7.788;2022-07-05T11:56:11;1.70;;;1.60;;
2001;SDS011;1003;48.002;7.788;2022-07-05T11:58:39;2.00;;;1.50;;
2001;SDS011;1003;48.002;7.788;2022-07-05T12:01:07;2.33;;;1.37;;
2001;SDS011;1003;48.002;7.788;2022-07-05T12:03:34;2.70;;;1.40;;
2001;SDS011;1003;48.002;7.788;2022-07-05T12:06:09;1.60;;;1.50;;
2001;SDS011;1003;48.002;7.788;2022-07-05T12:08:40;2.57;;;1.83;;
2001;SDS011;1003;48.002;7.788;2022-07-05T12:11:10;3.27;;;1.37;;
2001;SDS011;1003;48.002;7.788;2022-07-05T12:13:56;2.93;;;1.40;;
2001;SDS011;1003;48.002;7.788;2022-07-05T12:16:24;1.70;;;1.60;;
2001;SDS011;1003;48.002;7.788;2022-07-05T12:18:54;1.60;;;1.50;;
2001;SDS011;1003;48.002;7.788;2022-07-05T12:21:25;2.20;;;1.60;;
2001;SDS011;1003;48.002;7.788;2022-07-05T12:23:53;2.17;;;1.40;;
2001;SDS011;1003;48.002;7.788;2022-07-05T12:26:22;2.57;;;1.57;;
2001;SDS011;1003;48.002;7.788;2022-07-05T12:28:50;2.77;;;1.87;;
2001;SDS011;1003;48.002;7.788;2022-07-05T12:31:19;3.90;;;2.03;;
2001;SDS011;1003;48.002;7.788;2022-07-05T12:33:50;3.33;;;1.70;;
2001;SDS011;1003;48.002;7.788;2022-07-05T12:36:41;1.63;;;1.33;;
2001;SDS011;1003;48.002;7.788;2022-07-05T12:39:10;3.20;;;1.60;;
2001;SDS011;1003;48.002;7.788;2022-07-05T12:41:41;3.17;;;1.33;;
2001;SDS011;1003;48.002;7.788;2022-07-05T12:44:10;3.23;;;1.30;;
2001;SDS011;1003;48.002;7.788;2022-07-05T12:46:38;2.30;;;1.70;;
2001;SDS011;1003;48.002;7.788;2022-07-05T12:49:10;3.00;;;1.30;;
2001;SDS011;1003;48.002;7.788;2022-07-05T12:51:38;3.53;;;1.50;;
2001;SDS011;1003;48.002;7.788;2022-07-05T12:54:08;1.33;;;1.23;;
2001;SDS011;1003;48.002;7.788;2022-07-05T12:57:03;1.50;;;1.40;;
2001;SDS011;1003;48.002;7.788;2022-07-05T12:59:58;1.93;;;1.60;;
2001;SDS011;1003;48.002;7.788;2022-07-05T13:02:36;1.80;;;1.30;;
2001;SDS011;1003;48.002;7.788;2022-07-05T13:05:07;1.40;;;1.30;;
2001;SDS011;1003;48.002;7.788;2022-07-05T13:07:42;1.63;;;1.30;;
2001;SDS011;1003;48.002;7.788;2022-07-05T13:10:13;1.20;;;1.10;;
2001;SDS011;1003;48.002;7.788;2022-07-05T13:12:41;1.60;;;1.50;;
2001;SDS011;1003;48.002;7.788;2022-07-05T13:15:09;3.20;;;1.50;;
2001;SDS011;1003;48.002;7.788;2022-07-05T13:17:39;2.00;;;1.33;;
2001;SDS011;1003;48.002;7.788;2022-07-05T13:20:10;2.53;;;1.53;;
2001;SDS011;1003;48.002;7.788;2022-07-05T13:22:40;3.03;;;1.50;;
2001;SDS011;1003;48.002;7.788;2022-07-05T13:25:08;1.80;;;1.50;;
2001;SDS011;1003;48.002;7.788;2022-07-05T13:27:37;1.37;;;1.27;;
2001;SDS011;1003;48.002;7.788;2022-07-05T13:30:06;1.07;;;1.07;;
2001;SDS011;1003;48.002;7.788;2022-07-05T13:32:34;1.40;;;1.30;;
2001;SDS011;1003;48.002;7.788;2022-07-05T13:35:02;1.47;;;1.30;;
2001;SDS011;1003;48.002;7.788;2022-07-05T13:37:32;1.67;;;1.20;;
2001;SDS011;1003;48.002;7.788;2022-07-05T13:40:00;1.00;;;1.00;;
2001;SDS011;1003;48.002;7.788;2022-07-05T13:42:27;1.40;;;1.30;;
2001;SDS011;1003;48.002;7.788;2022-07-05T13:44:54;1.83;;;1.30;;
2001;SDS011;1003;48.002;7.788;2022-07-05T13:47:21;1.97;;;1.30;;
2001;SDS011;1003;48.002;7.788;2022-07-05T13:49:48;1.30;;;1.20;;
2001;SDS011;1003;48.002;7.788;2022-07-05T13:52:36;1.87;;;1.20;;
2001;SDS011;1003;48.002;7.788;2022-07-05T13:55:06;1.40;;;1.20;;
2001;SDS011;1003;48.002;7.788;2022-07-05T13:57:34;2.07;;;1.20;;
2001;SDS011;1003;48.002;7.788;2022-07-05T14:00:01;1.10;;;1.10;;
2001;SDS011;1003;48.002;7.788;2022-07-05T14:02:29;1.30;;;1.20;;
2001;SDS011;1003;48.002;7.788;2022-07-05T14:04:56;2.40;;;1.30;;
2001;SDS011;1003;48.002;7.788;2022-07-05T14:07:23;1.47;;;1.30;;
2001;SDS011;1003;48.002;7.788;2022-07-05T14:09:52;2.30;;;1.30;;
2001;SDS011;1003;48.002;7.788;2022-07-05T14:12:19;2.53;;;1.47;;
2001;SDS011;1003;48.002;7.788;2022-07-05T14:14:46;1.80;;;1.10;;
2001;SDS011;1003;48.002;7.788;2022-07-05T14:17:14;1.23;;;1.23;;
2001;SDS011;1003;48.002;7.788;2022-07-05T14:19:42;1.40;;;1.30;;
2001;SDS011;1003;48.002;7.788;2022-07-05T14:22:10;1.53;;;1.43;;
2001;SDS011;1003;48.002;7.788;2022-07-05T14:24:38;1.23;;;1.10;;
2001;SDS011;1003;48.002;7.788;2022-07-05T14:27:07;1.60;;;1.23;;
2001;SDS011;1003;48.002;7.788;2022-07-05T14:29:35;1.60;;;1.40;;
2001;SDS011;1003;48.002;7.788;2022-07-05T14:32:04;2.47;;;1.30;;
2001;SDS011;1003;48.002;7.788;2022-07-05T14:34:32;1.13;;;1.13;;
2001;SDS011;1003;48.002;7.788;2022-07-05T14:37:01;1.47;;;1.20;;
2001;SDS011;1003;48.002;7.788;2022-07-05T14:39:28;1.67;;;1.20;;
2001;SDS011;1003;48.002;7.788;2022-07-05T14:41:56;1.53;;;1.30;;
2001;SDS011;1003;48.002;7.788;2022-07-05T14:44:24;1.77;;;1.40;;
2001;SDS011;1003;48.002;7.788;2022-07-05T14:46:52;1.37;;;1.27;;
2001;SDS011;1003;48.002;7.788;2022-07-05T14:49:19;4.80;;;1.50;;
2001;SDS011;1003;48.002;7.788;2022-07-05T14:51:46;1.60;;;1.50;;
2001;SDS011;1003;48.002;7.788;2022-07-05T14:54:14;2.33;;;1.50;;
2001;SDS011;1003;48.002;7.788;2022-07-05T14:56:41;1.47;;;1.37;;
2001;SDS011;1003;48.002;7.788;2022-07-05T14:59:08;1.30;;;1.20;;
2001;SDS011;1003;48.002;7.788;2022-07-05T15:01:37;1.20;;;1.10;;
2001;SDS011;1003;48.002;7.788;2022-07-05T15:04:05;1.30;;;1.20;;
2001;SDS011;1003;48.002;7.788;2022-07-05T15:06:32;1.43;;;1.30;;
2001;SDS011;1003;48.002;7.788;2022-07-05T15:08:59;2.27;;;1.40;;
2001;SDS011;1003;48.002;7.788;2022-07-05T15:11:27;1.50;;;1.40;;
2001;SDS011;1003;48.002;7.788;2022-07-05T15:13:54;1.50;;;1.40;;
2001;SDS011;1003;48.002;7.788;2022-07-05T15:16:22;1.63;;;1.33;;
2001;SDS011;1003;48.002;7.788;2022-07-05T15:18:51;1.90;;;1.50;;
2001;SDS011;1003;48.002;7.788;2022-07-05T15:21:19;2.27;;;1.40;;
2001;SDS011;1003;48.002;7.788;2022-07-05T15:23:46;1.80;;;1.20;;
2001;SDS011;1003;48.002;7.788;2022-07-05T15:26:13;1.80;;;1.50;;
2001;SDS011;1003;48.002;7.788;2022-07-05T15:28:41;1.23;;;1.20;;
2001;SDS011;1003;48.002;7.788;2022-07-05T15:31:08;1.43;;;1.30;;
2001;SDS011;1003;48.002;7.788;2022-07-05T15:33:36;2.47;;;1.40;;
2001;SDS011;1003;48.002;7.788;2022-07-05T15:36:05;1.47;;;1.37;;
2001;SDS011;1003;48.002;7.788;2022-07-05T15:38:32;3.33;;;1.40;;
2001;SDS011;1003;48.002;7.788;2022-07-05T15:41:01;3.43;;;1.50;;
2001;SDS011;1003;48.002;7.788;2022-07-05T15:43:28;2.27;;;1.47;;